sensor_id;sensor_type;location;lat;lon;timestamp;pressure;altitude;pressure_sealevel;temperature;humidity
60465;BME280;46314;52.392;9.758;2023-02-13T00:00:46;103109.50;;;9.92;82.31
60465;BME280;46314;52.392;9.758;2023-02-13T00:03:13;103107.38;;;10.05;81.61
60465;BME280;46314;52.392;9.758;2023-02-13T00:05:40;103103.22;;;9.84;82.59
60465;BME280;46314;52.392;9.758;2023-02-13T00:08:06;103113.88;;;9.99;83.38
60465;BME280;46314;52.392;9.758;2023-02-13T00:10:32;103104.09;;;9.97;82.04
60465;BME280;46314;52.392;9.758;2023-02-13T00:12:59;103109.47;;;10.22;81.21
60465;BME280;46314;52.392;9.758;2023-02-13T00:15:26;103100.34;;;9.31;85.46
60465;BME280;46314;52.392;9.758;2023-02-13T00:17:53;103099.47;;;9.79;83.76
60465;BME280;46314;52.392;9.758;2023-02-13T00:20:20;103094.84;;;10.15;82.38
60465;BME280;46314;52.392;9.758;2023-02-13T00:22:46;103095.34;;;9.81;83.06
60465;BME280;46314;52.392;9.758;2023-02-13T00:25:12;103098.44;;;9.61;83.66
60465;BME280;46314;52.392;9.758;2023-02-13T00:27:39;103100.22;;;9.56;83.97
60465;BME280;46314;52.392;9.758;2023-02-13T00:30:06;103092.38;;;9.53;84.01
60465;BME280;46314;52.392;9.758;2023-02-13T00:32:34;103096.19;;;9.70;83.36
60465;BME280;46314;52.392;9.758;2023-02-13T00:35:01;103096.41;;;9.38;85.22
60465;BME280;46314;52.392;9.758;2023-02-13T00:37:27;103097.44;;;9.56;83.90
60465;BME280;46314;52.392;9.758;2023-02-13T00:39:53;103088.84;;;9.45;84.39
60465;BME280;46314;52.392;9.758;2023-02-13T00:42:20;103096.88;;;9.96;82.98
60465;BME280;46314;52.392;9.758;2023-02-13T00:44:46;103100.81;;;9.88;82.39
60465;BME280;46314;52.392;9.758;2023-02-13T00:47:12;103104.16;;;9.48;83.49
60465;BME280;46314;52.392;9.758;2023-02-13T00:49:40;103103.66;;;9.70;84.35
60465;BME280;46314;52.392;9.758;2023-02-13T00:52:06;103104.38;;;10.19;81.60
60465;BME280;46314;52.392;9.758;2023-02-13T00:54:33;103100.50;;;10.08;81.17
60465;BME280;46314;52.392;9.758;2023-02-13T00:56:59;103098.75;;;10.26;80.87
60465;BME280;46314;52.392;9.758;2023-02-13T00:59:26;103092.41;;;9.95;81.99
60465;BME280;46314;52.392;9.758;2023-02-13T01:01:52;103085.53;;;9.55;85.15
60465;BME280;46314;52.392;9.758;2023-02-13T01:04:19;103090.13;;;10.03;82.70
60465;BME280;46314;52.392;9.758;2023-02-13T01:06:46;103090.72;;;10.05;82.25
60465;BME280;46314;52.392;9.758;2023-02-13T01:09:13;103084.03;;;9.83;82.30
60465;BME280;46314;52.392;9.758;2023-02-13T01:11:39;103083.75;;;9.61;83.70
60465;BME280;46314;52.392;9.758;2023-02-13T01:14:06;103089.06;;;9.62;83.81
60465;BME280;46314;52.392;9.758;2023-02-13T01:16:32;103080.06;;;9.48;83.77
60465;BME280;46314;52.392;9.758;2023-02-13T01:18:59;103084.56;;;9.31;85.33
60465;BME280;46314;52.392;9.758;2023-02-13T01:21:25;103077.38;;;9.42;84.81
60465;BME280;46314;52.392;9.758;2023-02-13T01:23:53;103071.00;;;9.41;84.90
60465;BME280;46314;52.392;9.758;2023-02-13T01:26:21;103071.19;;;9.28;85.38
60465;BME280;46314;52.392;9.758;2023-02-13T01:28:51;103072.47;;;9.86;83.44
60465;BME280;46314;52.392;9.758;2023-02-13T01:31:18;103074.69;;;9.54;84.23
60465;BME280;46314;52.392;9.758;2023-02-13T01:33:44;103071.22;;;9.70;83.81
60465;BME280;46314;52.392;9.758;2023-02-13T01:36:12;103074.06;;;9.52;83.74
60465;BME280;46314;52.392;9.758;2023-02-13T01:38:39;103065.66;;;9.58;84.84
60465;BME280;46314;52.392;9.758;2023-02-13T01:41:08;103060.25;;;9.63;83.93
60465;BME280;46314;52.392;9.758;2023-02-13T01:43:46;103061.63;;;9.73;84.06
60465;BME280;46314;52.392;9.758;2023-02-13T01:46:16;103058.44;;;9.69;84.63
60465;BME280;46314;52.392;9.758;2023-02-13T01:48:44;103058.13;;;9.77;83.47
60465;BME280;46314;52.392;9.758;2023-02-13T01:51:15;103061.94;;;10.07;81.83
60465;BME280;46314;52.392;9.758;2023-02-13T01:53:45;103060.19;;;9.82;82.19
60465;BME280;46314;52.392;9.758;2023-02-13T01:56:19;103056.16;;;9.66;84.08
60465;BME280;46314;52.392;9.758;2023-02-13T01:58:48;103063.38;;;9.97;82.34
60465;BME280;46314;52.392;9.758;2023-02-13T02:01:16;103063.22;;;10.04;82.36
60465;BME280;46314;52.392;9.758;2023-02-13T02:03:45;103066.94;;;9.86;83.16
60465;BME280;46314;52.392;9.758;2023-02-13T02:06:31;103049.97;;;9.52;84.26
60465;BME280;46314;52.392;9.758;2023-02-13T02:09:02;103058.63;;;9.86;83.25
60465;BME280;46314;52.392;9.758;2023-02-13T02:11:36;103051.13;;;9.14;85.74
60465;BME280;46314;52.392;9.758;2023-02-13T02:14:05;103046.38;;;9.63;84.05
60465;BME280;46314;52.392;9.758;2023-02-13T02:16:31;103054.38;;;9.72;84.22
60465;BME280;46314;52.392;9.758;2023-02-13T02:18:58;103047.63;;;9.79;82.94
60465;BME280;46314;52.392;9.758;2023-02-13T02:21:45;103051.28;;;9.50;85.07
60465;BME280;46314;52.392;9.758;2023-02-13T02:24:25;103049.28;;;9.69;84.19
60465;BME280;46314;52.392;9.758;2023-02-13T02:27:27;103040.09;;;10.10;81.79
60465;BME280;46314;52.392;9.758;2023-02-13T02:30:23;103035.50;;;10.04;82.00
60465;BME280;46314;52.392;9.758;2023-02-13T02:33:08;103041.91;;;9.51;84.21
60465;BME280;46314;52.392;9.758;2023-02-13T02:35:45;103039.44;;;9.73;83.91
60465;BME280;46314;52.392;9.758;2023-02-13T02:38:26;103027.22;;;9.62;84.22
60465;BME280;46314;52.392;9.758;2023-02-13T02:41:02;103030.13;;;9.67;83.32
60465;BME280;46314;52.392;9.758;2023-02-13T02:43:50;103031.03;;;9.49;84.01
60465;BME280;46314;52.392;9.758;2023-02-13T02:46:24;103020.66;;;9.86;83.52
60465;BME280;46314;52.392;9.758;2023-02-13T02:48:56;103026.31;;;9.92;82.75
60465;BME280;46314;52.392;9.758;2023-02-13T02:51:32;103021.94;;;9.60;82.67
60465;BME280;46314;52.392;9.758;2023-02-13T02:54:07;103019.53;;;9.34;84.70
60465;BME280;46314;52.392;9.758;2023-02-13T02:56:39;103020.78;;;9.38;84.73
60465;BME280;46314;52.392;9.758;2023-02-13T02:59:09;103010.19;;;9.89;82.37
60465;BME280;46314;52.392;9.758;2023-02-13T03:01:38;103017.50;;;9.83;82.56
60465;BME280;46314;52.392;9.758;2023-02-13T03:04:13;103015.41;;;9.24;84.51
60465;BME280;46314;52.392;9.758;2023-02-13T03:06:45;103019.28;;;9.65;83.14
60465;BME280;46314;52.392;9.758;2023-02-13T03:09:17;103017.09;;;9.56;84.87
60465;BME280;46314;52.392;9.758;2023-02-13T03:11:48;103018.75;;;9.87;82.06
60465;BME280;46314;52.392;9.758;2023-02-13T03:14:19;103018.94;;;9.74;82.61
60465;BME280;46314;52.392;9.758;2023-02-13T03:16:46;103010.44;;;9.87;81.54
60465;BME280;46314;52.392;9.758;2023-02-13T03:19:21;103016.66;;;9.71;83.00
60465;BME280;46314;52.392;9.758;2023-02-13T03:21:55;103020.16;;;9.78;82.36
60465;BME280;46314;52.392;9.758;2023-02-13T03:24:27;103017.13;;;9.68;82.61
60465;BME280;46314;52.392;9.758;2023-02-13T03:27:02;103016.50;;;9.65;83.75
60465;BME280;46314;52.392;9.758;2023-02-13T03:29:39;103023.75;;;9.66;82.22
60465;BME280;46314;52.392;9.758;2023-02-13T03:32:12;103021.66;;;9.50;83.14
60465;BME280;46314;52.392;9.758;2023-02-13T03:34:47;103020.28;;;9.71;83.67
60465;BME280;46314;52.392;9.758;2023-02-13T03:37:17;103029.34;;;9.78;83.16
60465;BME280;46314;52.392;9.758;2023-02-13T03:39:52;103024.06;;;9.58;82.62
60465;BME280;46314;52.392;9.758;2023-02-13T03:42:29;103022.31;;;9.34;83.75
60465;BME280;46314;52.392;9.758;2023-02-13T03:44:59;103029.97;;;9.50;84.32
60465;BME280;46314;52.392;9.758;2023-02-13T03:47:27;103032.97;;;10.02;81.86
60465;BME280;46314;52.392;9.758;2023-02-13T03:49:55;103030.38;;;9.65;82.96
60465;BME280;46314;52.392;9.758;2023-02-13T03:52:24;103027.53;;;9.42;83.57
60465;BME280;46314;52.392;9.758;2023-02-13T03:54:55;103028.75;;;9.46;83.50
60465;BME280;46314;52.392;9.758;2023-02-13T03:57:24;103027.91;;;9.15;84.10
60465;BME280;46314;52.392;9.758;2023-02-13T03:59:54;103026.59;;;9.48;83.09
60465;BME280;46314;52.392;9.758;2023-02-13T04:02:25;103026.78;;;9.77;82.97
60465;BME280;46314;52.392;9.758;2023-02-13T04:05:03;103027.41;;;10.02;81.07
60465;BME280;46314;52.392;9.758;2023-02-13T04:07:33;103031.19;;;9.54;82.44
60465;BME280;46314;52.392;9.758;2023-02-13T04:10:02;103030.41;;;9.77;81.80
60465;BME280;46314;52.392;9.758;2023-02-13T04:12:36;103026.06;;;9.70;82.62
60465;BME280;46314;52.392;9.758;2023-02-13T04:15:08;103020.19;;;9.47;83.10
60465;BME280;46314;52.392;9.758;2023-02-13T04:17:41;103018.84;;;9.80;82.13
60465;BME280;46314;52.392;9.758;2023-02-13T04:20:11;103022.69;;;9.79;81.93
60465;BME280;46314;52.392;9.758;2023-02-13T04:22:41;103020.78;;;9.92;81.16
60465;BME280;46314;52.392;9.758;2023-02-13T04:25:09;103021.50;;;9.75;81.50
60465;BME280;46314;52.392;9.758;2023-02-13T04:27:35;103024.47;;;9.32;83.30
60465;BME280;46314;52.392;9.758;2023-02-13T04:30:02;103023.53;;;9.68;83.31
60465;BME280;46314;52.392;9.758;2023-02-13T04:32:29;103018.06;;;9.61;82.49
60465;BME280;46314;52.392;9.758;2023-02-13T04:34:55;103016.41;;;9.72;82.79
60465;BME280;46314;52.392;9.758;2023-02-13T04:37:23;103011.00;;;8.86;85.79
60465;BME280;46314;52.392;9.758;2023-02-13T04:39:49;103012.59;;;9.13;84.81
60465;BME280;46314;52.392;9.758;2023-02-13T04:42:16;103006.09;;;9.91;82.09
60465;BME280;46314;52.392;9.758;2023-02-13T04:44:42;103009.72;;;9.50;82.64
60465;BME280;46314;52.392;9.758;2023-02-13T04:47:09;103006.69;;;9.93;81.02
60465;BME280;46314;52.392;9.758;2023-02-13T04:49:36;103011.34;;;9.69;81.31
60465;BME280;46314;52.392;9.758;2023-02-13T04:52:02;103002.78;;;9.59;82.02
60465;BME280;46314;52.392;9.758;2023-02-13T04:54:30;103008.44;;;9.22;82.81
60465;BME280;46314;52.392;9.758;2023-02-13T04:56:57;103011.72;;;9.73;82.19
60465;BME280;46314;52.392;9.758;2023-02-13T04:59:23;103010.63;;;9.74;81.17
60465;BME280;46314;52.392;9.758;2023-02-13T05:01:49;103008.28;;;10.01;79.66
60465;BME280;46314;52.392;9.758;2023-02-13T05:04:16;103006.50;;;8.92;83.50
60465;BME280;46314;52.392;9.758;2023-02-13T05:06:42;103007.69;;;9.15;84.03
60465;BME280;46314;52.392;9.758;2023-02-13T05:09:09;103003.03;;;9.27;82.44
60465;BME280;46314;52.392;9.758;2023-02-13T05:11:37;103004.41;;;9.06;84.45
60465;BME280;46314;52.392;9.758;2023-02-13T05:14:03;103011.34;;;9.69;81.91
60465;BME280;46314;52.392;9.758;2023-02-13T05:16:30;103011.59;;;9.25;81.55
60465;BME280;46314;52.392;9.758;2023-02-13T05:18:56;103011.00;;;9.05;83.42
60465;BME280;46314;52.392;9.758;2023-02-13T05:21:22;103024.50;;;9.74;80.67
60465;BME280;46314;52.392;9.758;2023-02-13T05:23:49;103019.91;;;9.37;82.78
60465;BME280;46314;52.392;9.758;2023-02-13T05:26:15;103020.75;;;9.07;82.47
60465;BME280;46314;52.392;9.758;2023-02-13T05:28:43;103024.91;;;9.17;82.89
60465;BME280;46314;52.392;9.758;2023-02-13T05:31:09;103020.22;;;9.17;82.37
60465;BME280;46314;52.392;9.758;2023-02-13T05:33:36;103023.28;;;9.81;80.12
60465;BME280;46314;52.392;9.758;2023-02-13T05:36:03;103031.03;;;9.91;79.08
60465;BME280;46314;52.392;9.758;2023-02-13T05:38:29;103023.31;;;9.93;78.74
60465;BME280;46314;52.392;9.758;2023-02-13T05:40:57;103023.41;;;9.33;81.35
60465;BME280;46314;52.392;9.758;2023-02-13T05:43:24;103026.38;;;9.61;81.51
60465;BME280;46314;52.392;9.758;2023-02-13T05:46:00;103029.22;;;9.43;80.10
60465;BME280;46314;52.392;9.758;2023-02-13T05:48:26;103028.81;;;9.09;81.95
60465;BME280;46314;52.392;9.758;2023-02-13T05:50:53;103022.44;;;9.81;79.83
60465;BME280;46314;52.392;9.758;2023-02-13T05:53:19;103024.81;;;9.54;79.86
60465;BME280;46314;52.392;9.758;2023-02-13T05:55:45;103029.47;;;8.93;82.22
60465;BME280;46314;52.392;9.758;2023-02-13T05:58:12;103023.78;;;8.87;83.80
60465;BME280;46314;52.392;9.758;2023-02-13T06:00:38;103025.88;;;9.53;80.22
60465;BME280;46314;52.392;9.758;2023-02-13T06:03:06;103033.53;;;9.08;81.97
60465;BME280;46314;52.392;9.758;2023-02-13T06:05:32;103032.16;;;9.60;79.93
60465;BME280;46314;52.392;9.758;2023-02-13T06:07:59;103023.94;;;9.23;80.04
60465;BME280;46314;52.392;9.758;2023-02-13T06:10:25;103028.06;;;9.02;82.41
60465;BME280;46314;52.392;9.758;2023-02-13T06:12:51;103032.16;;;8.99;81.46
60465;BME280;46314;52.392;9.758;2023-02-13T06:15:19;103029.69;;;9.40;80.95
60465;BME280;46314;52.392;9.758;2023-02-13T06:17:45;103036.03;;;9.71;79.29
60465;BME280;46314;52.392;9.758;2023-02-13T06:20:13;103036.13;;;9.22;79.96
60465;BME280;46314;52.392;9.758;2023-02-13T06:22:39;103040.25;;;9.31;80.05
60465;BME280;46314;52.392;9.758;2023-02-13T06:25:06;103043.34;;;9.53;80.15
60465;BME280;46314;52.392;9.758;2023-02-13T06:27:33;103050.44;;;9.91;78.23
60465;BME280;46314;52.392;9.758;2023-02-13T06:29:59;103047.72;;;9.31;80.13
60465;BME280;46314;52.392;9.758;2023-02-13T06:32:25;103038.59;;;9.42;80.23
60465;BME280;46314;52.392;9.758;2023-02-13T06:34:52;103044.50;;;9.76;79.31
60465;BME280;46314;52.392;9.758;2023-02-13T06:37:19;103050.22;;;9.02;81.34
60465;BME280;46314;52.392;9.758;2023-02-13T06:39:46;103058.22;;;9.71;79.60
60465;BME280;46314;52.392;9.758;2023-02-13T06:42:12;103052.22;;;9.43;81.38
60465;BME280;46314;52.392;9.758;2023-02-13T06:44:39;103049.47;;;9.43;80.10
60465;BME280;46314;52.392;9.758;2023-02-13T06:47:05;103055.31;;;9.35;81.16
60465;BME280;46314;52.392;9.758;2023-02-13T06:49:31;103054.06;;;9.01;81.74
60465;BME280;46314;52.392;9.758;2023-02-13T06:51:58;103054.34;;;9.11;80.71
60465;BME280;46314;52.392;9.758;2023-02-13T06:54:25;103055.88;;;9.25;80.48
60465;BME280;46314;52.392;9.758;2023-02-13T06:57:11;103055.94;;;9.68;79.73
60465;BME280;46314;52.392;9.758;2023-02-13T06:59:38;103062.69;;;9.41;79.11
60465;BME280;46314;52.392;9.758;2023-02-13T07:02:04;103054.34;;;9.29;80.00
60465;BME280;46314;52.392;9.758;2023-02-13T07:04:31;103062.22;;;9.75;78.63
60465;BME280;46314;52.392;9.758;2023-02-13T07:06:57;103056.97;;;9.55;80.32
60465;BME280;46314;52.392;9.758;2023-02-13T07:09:23;103058.72;;;9.68;79.09
60465;BME280;46314;52.392;9.758;2023-02-13T07:11:51;103065.47;;;9.41;79.95
60465;BME280;46314;52.392;9.758;2023-02-13T07:14:18;103064.47;;;9.66;79.07
60465;BME280;46314;52.392;9.758;2023-02-13T07:16:44;103067.84;;;9.68;79.53
60465;BME280;46314;52.392;9.758;2023-02-13T07:19:10;103059.44;;;9.14;80.16
60465;BME280;46314;52.392;9.758;2023-02-13T07:21:37;103061.38;;;9.44;79.25
60465;BME280;46314;52.392;9.758;2023-02-13T07:24:03;103064.66;;;9.04;81.48
60465;BME280;46314;52.392;9.758;2023-02-13T07:26:33;103067.78;;;9.86;79.09
60465;BME280;46314;52.392;9.758;2023-02-13T07:29:01;103074.44;;;9.55;78.68
60465;BME280;46314;52.392;9.758;2023-02-13T07:31:36;103078.41;;;9.29;79.68
60465;BME280;46314;52.392;9.758;2023-02-13T07:34:03;103083.88;;;9.66;78.71
60465;BME280;46314;52.392;9.758;2023-02-13T07:36:29;103075.84;;;9.76;77.99
60465;BME280;46314;52.392;9.758;2023-02-13T07:38:56;103079.41;;;9.16;81.25
60465;BME280;46314;52.392;9.758;2023-02-13T07:41:22;103078.66;;;9.27;79.77
60465;BME280;46314;52.392;9.758;2023-02-13T07:43:49;103081.66;;;9.56;80.04
60465;BME280;46314;52.392;9.758;2023-02-13T07:46:16;103079.72;;;9.87;78.61
60465;BME280;46314;52.392;9.758;2023-02-13T07:48:43;103084.50;;;8.82;81.58
60465;BME280;46314;52.392;9.758;2023-02-13T07:51:09;103086.75;;;9.59;79.00
60465;BME280;46314;52.392;9.758;2023-02-13T07:53:36;103088.78;;;9.34;81.55
60465;BME280;46314;52.392;9.758;2023-02-13T07:56:06;103081.81;;;9.61;80.33
60465;BME280;46314;52.392;9.758;2023-02-13T07:58:32;103086.66;;;9.78;78.78
60465;BME280;46314;52.392;9.758;2023-02-13T08:01:04;103083.66;;;8.82;82.05
60465;BME280;46314;52.392;9.758;2023-02-13T08:03:32;103088.09;;;9.69;79.90
60465;BME280;46314;52.392;9.758;2023-02-13T08:05:59;103097.00;;;10.13;76.81
60465;BME280;46314;52.392;9.758;2023-02-13T08:08:25;103086.00;;;9.94;77.82
60465;BME280;46314;52.392;9.758;2023-02-13T08:10:52;103081.06;;;9.54;78.48
60465;BME280;46314;52.392;9.758;2023-02-13T08:13:18;103090.25;;;9.18;81.26
60465;BME280;46314;52.392;9.758;2023-02-13T08:15:45;103092.44;;;9.46;79.82
60465;BME280;46314;52.392;9.758;2023-02-13T08:18:11;103098.53;;;9.85;78.80
60465;BME280;46314;52.392;9.758;2023-02-13T08:20:39;103101.47;;;9.41;78.51
60465;BME280;46314;52.392;9.758;2023-02-13T08:23:09;103100.63;;;9.41;80.51
60465;BME280;46314;52.392;9.758;2023-02-13T08:25:36;103103.19;;;9.73;78.68
60465;BME280;46314;52.392;9.758;2023-02-13T08:28:03;103101.16;;;9.80;78.24
60465;BME280;46314;52.392;9.758;2023-02-13T08:30:30;103100.97;;;8.96;80.73
60465;BME280;46314;52.392;9.758;2023-02-13T08:32:56;103103.94;;;9.31;81.84
60465;BME280;46314;52.392;9.758;2023-02-13T08:35:23;103105.88;;;9.91;79.26
60465;BME280;46314;52.392;9.758;2023-02-13T08:37:51;103100.00;;;8.65;82.68
60465;BME280;46314;52.392;9.758;2023-02-13T08:40:17;103108.94;;;8.67;83.63
60465;BME280;46314;52.392;9.758;2023-02-13T08:42:44;103106.94;;;9.78;79.59
60465;BME280;46314;52.392;9.758;2023-02-13T08:45:10;103101.75;;;10.24;77.22
60465;BME280;46314;52.392;9.758;2023-02-13T08:47:37;103107.34;;;10.59;74.45
60465;BME280;46314;52.392;9.758;2023-02-13T08:50:05;103097.97;;;9.16;81.78
60465;BME280;46314;52.392;9.758;2023-02-13T08:52:32;103106.81;;;8.69;82.68
60465;BME280;46314;52.392;9.758;2023-02-13T08:55:00;103108.66;;;8.94;82.50
60465;BME280;46314;52.392;9.758;2023-02-13T08:57:27;103104.34;;;9.16;82.71
60465;BME280;46314;52.392;9.758;2023-02-13T08:59:53;103111.03;;;8.71;83.74
60465;BME280;46314;52.392;9.758;2023-02-13T09:02:19;103113.25;;;9.37;81.40
60465;BME280;46314;52.392;9.758;2023-02-13T09:04:46;103099.09;;;9.26;81.52
60465;BME280;46314;52.392;9.758;2023-02-13T09:07:12;103108.91;;;9.59;80.18
60465;BME280;46314;52.392;9.758;2023-02-13T09:09:39;103105.03;;;8.93;81.88
60465;BME280;46314;52.392;9.758;2023-02-13T09:12:06;103109.72;;;9.90;79.06
60465;BME280;46314;52.392;9.758;2023-02-13T09:14:33;103104.28;;;10.26;76.13
60465;BME280;46314;52.392;9.758;2023-02-13T09:16:59;103100.22;;;10.87;73.91
60465;BME280;46314;52.392;9.758;2023-02-13T09:19:25;103099.38;;;10.63;75.10
60465;BME280;46314;52.392;9.758;2023-02-13T09:21:52;103098.50;;;9.55;79.41
60465;BME280;46314;52.392;9.758;2023-02-13T09:24:18;103098.75;;;9.83;77.63
60465;BME280;46314;52.392;9.758;2023-02-13T09:26:45;103096.63;;;9.55;78.72
60465;BME280;46314;52.392;9.758;2023-02-13T09:29:12;103099.34;;;10.39;75.62
60465;BME280;46314;52.392;9.758;2023-02-13T09:31:39;103108.69;;;10.15;75.08
60465;BME280;46314;52.392;9.758;2023-02-13T09:34:05;103096.25;;;10.71;73.76
60465;BME280;46314;52.392;9.758;2023-02-13T09:36:32;103091.72;;;10.23;74.75
60465;BME280;46314;52.392;9.758;2023-02-13T09:38:58;103095.19;;;10.07;75.47
60465;BME280;46314;52.392;9.758;2023-02-13T09:41:27;103094.47;;;9.39;79.13
60465;BME280;46314;52.392;9.758;2023-02-13T09:43:56;103100.75;;;9.46;78.84
60465;BME280;46314;52.392;9.758;2023-02-13T09:46:29;103097.09;;;9.34;79.08
60465;BME280;46314;52.392;9.758;2023-02-13T09:48:58;103083.75;;;9.12;80.54
60465;BME280;46314;52.392;9.758;2023-02-13T09:51:27;103091.78;;;9.32;80.09
60465;BME280;46314;52.392;9.758;2023-02-13T09:53:55;103096.13;;;9.58;79.00
60465;BME280;46314;52.392;9.758;2023-02-13T09:56:36;103099.00;;;9.52;78.76
60465;BME280;46314;52.392;9.758;2023-02-13T09:59:11;103100.38;;;10.03;77.90
60465;BME280;46314;52.392;9.758;2023-02-13T10:01:45;103098.56;;;10.09;77.76
60465;BME280;46314;52.392;9.758;2023-02-13T10:04:23;103103.94;;;10.69;74.06
60465;BME280;46314;52.392;9.758;2023-02-13T10:06:57;103102.50;;;11.43;71.05
60465;BME280;46314;52.392;9.758;2023-02-13T10:09:31;103092.19;;;11.14;72.40
60465;BME280;46314;52.392;9.758;2023-02-13T10:12:12;103106.22;;;11.77;69.49
60465;BME280;46314;52.392;9.758;2023-02-13T10:14:49;103100.19;;;11.40;70.51
60465;BME280;46314;52.392;9.758;2023-02-13T10:17:25;103100.94;;;10.71;73.42
60465;BME280;46314;52.392;9.758;2023-02-13T10:19:56;103103.44;;;11.08;71.24
60465;BME280;46314;52.392;9.758;2023-02-13T10:22:28;103111.41;;;11.04;71.52
60465;BME280;46314;52.392;9.758;2023-02-13T10:24:59;103104.91;;;10.87;70.77
60465;BME280;46314;52.392;9.758;2023-02-13T10:27:31;103116.28;;;10.73;72.93
60465;BME280;46314;52.392;9.758;2023-02-13T10:30:02;103111.44;;;11.73;68.92
60465;BME280;46314;52.392;9.758;2023-02-13T10:32:37;103110.56;;;11.73;69.57
60465;BME280;46314;52.392;9.758;2023-02-13T10:35:17;103107.31;;;12.22;66.69
60465;BME280;46314;52.392;9.758;2023-02-13T10:37:45;103111.44;;;9.91;74.67
60465;BME280;46314;52.392;9.758;2023-02-13T10:40:13;103098.63;;;10.79;71.39
60465;BME280;46314;52.392;9.758;2023-02-13T10:42:43;103106.38;;;10.77;72.35
60465;BME280;46314;52.392;9.758;2023-02-13T10:45:26;103107.34;;;9.63;75.62
60465;BME280;46314;52.392;9.758;2023-02-13T10:48:05;103108.31;;;10.41;74.79
60465;BME280;46314;52.392;9.758;2023-02-13T10:50:40;103102.34;;;11.49;70.54
60465;BME280;46314;52.392;9.758;2023-02-13T10:53:14;103100.47;;;10.62;72.63
60465;BME280;46314;52.392;9.758;2023-02-13T10:55:57;103108.00;;;9.77;74.60
60465;BME280;46314;52.392;9.758;2023-02-13T10:58:31;103109.38;;;10.76;70.89
60465;BME280;46314;52.392;9.758;2023-02-13T11:01:07;103105.66;;;10.70;71.41
60465;BME280;46314;52.392;9.758;2023-02-13T11:03:36;103101.16;;;10.93;72.87
60465;BME280;46314;52.392;9.758;2023-02-13T11:06:05;103095.41;;;11.35;69.01
60465;BME280;46314;52.392;9.758;2023-02-13T11:08:34;103096.09;;;9.77;74.83
60465;BME280;46314;52.392;9.758;2023-02-13T11:11:27;103093.34;;;10.42;73.06
60465;BME280;46314;52.392;9.758;2023-02-13T11:14:07;103093.38;;;10.00;74.24
60465;BME280;46314;52.392;9.758;2023-02-13T11:16:38;103097.25;;;10.11;74.70
60465;BME280;46314;52.392;9.758;2023-02-13T11:19:15;103089.50;;;11.31;69.54
60465;BME280;46314;52.392;9.758;2023-02-13T11:21:42;103082.88;;;11.21;69.03
60465;BME280;46314;52.392;9.758;2023-02-13T11:24:16;103081.19;;;11.77;68.68
60465;BME280;46314;52.392;9.758;2023-02-13T11:26:44;103079.56;;;10.95;71.95
60465;BME280;46314;52.392;9.758;2023-02-13T11:29:16;103080.25;;;11.02;70.08
60465;BME280;46314;52.392;9.758;2023-02-13T11:31:44;103083.16;;;11.07;70.54
60465;BME280;46314;52.392;9.758;2023-02-13T11:34:25;103081.09;;;11.43;69.34
60465;BME280;46314;52.392;9.758;2023-02-13T11:36:52;103076.88;;;11.00;69.26
60465;BME280;46314;52.392;9.758;2023-02-13T11:39:21;103071.56;;;11.10;69.36
60465;BME280;46314;52.392;9.758;2023-02-13T11:41:48;103072.75;;;11.72;68.56
60465;BME280;46314;52.392;9.758;2023-02-13T11:44:21;103072.84;;;10.44;71.32
60465;BME280;46314;52.392;9.758;2023-02-13T11:46:51;103070.88;;;10.79;71.72
60465;BME280;46314;52.392;9.758;2023-02-13T11:49:22;103066.50;;;10.13;73.75
60465;BME280;46314;52.392;9.758;2023-02-13T11:51:51;103067.97;;;10.27;73.43
60465;BME280;46314;52.392;9.758;2023-02-13T11:54:24;103072.28;;;10.11;74.66
60465;BME280;46314;52.392;9.758;2023-02-13T11:56:55;103068.59;;;10.29;73.37
60465;BME280;46314;52.392;9.758;2023-02-13T11:59:38;103065.56;;;10.90;72.07
60465;BME280;46314;52.392;9.758;2023-02-13T12:02:17;103063.50;;;10.26;73.51
60465;BME280;46314;52.392;9.758;2023-02-13T12:04:47;103056.09;;;11.03;72.23
60465;BME280;46314;52.392;9.758;2023-02-13T12:07:19;103060.03;;;11.76;69.56
60465;BME280;46314;52.392;9.758;2023-02-13T12:09:50;103056.91;;;10.39;72.65
60465;BME280;46314;52.392;9.758;2023-02-13T12:12:22;103055.31;;;10.19;74.30
60465;BME280;46314;52.392;9.758;2023-02-13T12:14:51;103053.00;;;10.04;75.34
60465;BME280;46314;52.392;9.758;2023-02-13T12:17:20;103049.06;;;10.48;73.89
60465;BME280;46314;52.392;9.758;2023-02-13T12:19:58;103050.81;;;9.95;75.79
60465;BME280;46314;52.392;9.758;2023-02-13T12:22:30;103052.59;;;9.89;76.82
60465;BME280;46314;52.392;9.758;2023-02-13T12:25:24;103052.81;;;10.41;74.37
60465;BME280;46314;52.392;9.758;2023-02-13T12:28:05;103048.19;;;10.71;73.20
60465;BME280;46314;52.392;9.758;2023-02-13T12:30:41;103043.00;;;10.86;72.31
60465;BME280;46314;52.392;9.758;2023-02-13T12:33:20;103039.31;;;11.09;71.19
60465;BME280;46314;52.392;9.758;2023-02-13T12:35:56;103025.63;;;10.79;71.17
60465;BME280;46314;52.392;9.758;2023-02-13T12:38:37;103029.47;;;10.78;72.34
60465;BME280;46314;52.392;9.758;2023-02-13T12:41:17;103034.31;;;10.12;74.70
60465;BME280;46314;52.392;9.758;2023-02-13T12:46:53;103022.56;;;11.33;70.71
60465;BME280;46314;52.392;9.758;2023-02-13T12:49:33;103030.00;;;11.15;70.25
60465;BME280;46314;52.392;9.758;2023-02-13T12:52:20;103031.38;;;11.01;71.74
60465;BME280;46314;52.392;9.758;2023-02-13T12:55:01;103024.56;;;9.97;74.06
60465;BME280;46314;52.392;9.758;2023-02-13T12:57:40;103022.50;;;10.64;72.75
60465;BME280;46314;52.392;9.758;2023-02-13T13:00:19;103017.53;;;10.77;71.30
60465;BME280;46314;52.392;9.758;2023-02-13T13:02:57;103014.19;;;10.04;74.05
60465;BME280;46314;52.392;9.758;2023-02-13T13:05:37;103016.94;;;10.87;69.91
60465;BME280;46314;52.392;9.758;2023-02-13T13:08:21;103015.97;;;9.99;74.35
60465;BME280;46314;52.392;9.758;2023-02-13T13:10:57;103012.38;;;10.22;72.16
60465;BME280;46314;52.392;9.758;2023-02-13T13:13:41;103019.00;;;10.09;72.96
60465;BME280;46314;52.392;9.758;2023-02-13T13:16:18;103021.00;;;9.90;74.00